sensor_id;sensor_type;location;lat;lon;timestamp;temperature;humidity
43151;DHT22;28755;51.478;5.702;2023-02-28T00:00:46;0.30;99.90
43151;DHT22;28755;51.478;5.702;2023-02-28T00:03:11;0.30;99.90
43151;DHT22;28755;51.478;5.702;2023-02-28T00:05:37;0.30;99.90
43151;DHT22;28755;51.478;5.702;2023-02-28T00:08:03;0.30;99.90
43151;DHT22;28755;51.478;5.702;2023-02-28T00:10:30;0.30;99.90
43151;DHT22;28755;51.478;5.702;2023-02-28T00:13:00;0.20;99.90
43151;DHT22;28755;51.478;5.702;2023-02-28T00:15:26;0.20;99.90
43151;DHT22;28755;51.478;5.702;2023-02-28T00:17:52;0.20;99.90
43151;DHT22;28755;51.478;5.702;2023-02-28T00:20:18;0.20;99.90
43151;DHT22;28755;51.478;5.702;2023-02-28T00:22:46;0.20;99.90
43151;DHT22;28755;51.478;5.702;2023-02-28T00:25:14;0.10;99.90
43151;DHT22;28755;51.478;5.702;2023-02-28T00:27:41;0.20;99.90
43151;DHT22;28755;51.478;5.702;2023-02-28T00:30:09;0.10;99.90
43151;DHT22;28755;51.478;5.702;2023-02-28T00:32:35;0.00;99.90
43151;DHT22;28755;51.478;5.702;2023-02-28T00:35:01;0.10;99.90
43151;DHT22;28755;51.478;5.702;2023-02-28T00:37:27;0.00;99.90
43151;DHT22;28755;51.478;5.702;2023-02-28T00:39:53;0.00;99.90
43151;DHT22;28755;51.478;5.702;2023-02-28T00:42:18;0.00;99.90
43151;DHT22;28755;51.478;5.702;2023-02-28T00:44:44;0.00;99.90
43151;DHT22;28755;51.478;5.702;2023-02-28T00:47:10;0.10;99.90
43151;DHT22;28755;51.478;5.702;2023-02-28T00:49:35;0.00;99.90
43151;DHT22;28755;51.478;5.702;2023-02-28T00:52:01;0.00;99.90
43151;DHT22;28755;51.478;5.702;2023-02-28T00:54:26;0.00;99.90
43151;DHT22;28755;51.478;5.702;2023-02-28T00:56:52;0.00;99.90
43151;DHT22;28755;51.478;5.702;2023-02-28T00:59:18;-0.10;99.90
43151;DHT22;28755;51.478;5.702;2023-02-28T01:01:45;-0.10;99.90
43151;DHT22;28755;51.478;5.702;2023-02-28T01:04:11;-0.10;99.90
43151;DHT22;28755;51.478;5.702;2023-02-28T01:06:37;-0.10;99.90
43151;DHT22;28755;51.478;5.702;2023-02-28T01:09:05;-0.20;99.90
43151;DHT22;28755;51.478;5.702;2023-02-28T01:11:31;-0.20;99.90
43151;DHT22;28755;51.478;5.702;2023-02-28T01:13:57;-0.20;99.90
43151;DHT22;28755;51.478;5.702;2023-02-28T01:16:23;-0.20;99.90
43151;DHT22;28755;51.478;5.702;2023-02-28T01:18:48;-0.30;99.90
43151;DHT22;28755;51.478;5.702;2023-02-28T01:21:16;-0.30;99.90
43151;DHT22;28755;51.478;5.702;2023-02-28T01:23:42;-0.40;99.90
43151;DHT22;28755;51.478;5.702;2023-02-28T01:26:13;-0.40;99.90
43151;DHT22;28755;51.478;5.702;2023-02-28T01:28:39;-0.40;99.90
43151;DHT22;28755;51.478;5.702;2023-02-28T01:31:05;-0.40;99.90
43151;DHT22;28755;51.478;5.702;2023-02-28T01:33:31;-0.50;99.90
43151;DHT22;28755;51.478;5.702;2023-02-28T01:38:26;-0.50;99.90
43151;DHT22;28755;51.478;5.702;2023-02-28T01:40:52;-0.40;99.90
43151;DHT22;28755;51.478;5.702;2023-02-28T01:43:35;-0.50;99.90
43151;DHT22;28755;51.478;5.702;2023-02-28T01:46:16;-0.50;99.90
43151;DHT22;28755;51.478;5.702;2023-02-28T01:48:56;-0.50;99.90
43151;DHT22;28755;51.478;5.702;2023-02-28T01:51:29;-0.50;99.90
43151;DHT22;28755;51.478;5.702;2023-02-28T01:53:59;-0.50;99.90
43151;DHT22;28755;51.478;5.702;2023-02-28T01:56:30;-0.50;99.90
43151;DHT22;28755;51.478;5.702;2023-02-28T01:58:58;-0.50;99.90
43151;DHT22;28755;51.478;5.702;2023-02-28T02:01:26;-0.60;99.90
43151;DHT22;28755;51.478;5.702;2023-02-28T02:03:57;-0.60;99.90
43151;DHT22;28755;51.478;5.702;2023-02-28T02:06:34;-0.50;99.90
43151;DHT22;28755;51.478;5.702;2023-02-28T02:09:00;-0.50;99.90
43151;DHT22;28755;51.478;5.702;2023-02-28T02:11:26;-0.50;99.90
43151;DHT22;28755;51.478;5.702;2023-02-28T02:14:26;-0.50;99.90
43151;DHT22;28755;51.478;5.702;2023-02-28T02:17:11;-0.40;99.90
43151;DHT22;28755;51.478;5.702;2023-02-28T02:25:52;-0.40;99.90
43151;DHT22;28755;51.478;5.702;2023-02-28T02:36:19;-0.60;99.90
43151;DHT22;28755;51.478;5.702;2023-02-28T02:39:02;-0.60;99.90
43151;DHT22;28755;51.478;5.702;2023-02-28T02:41:39;-0.60;99.90
43151;DHT22;28755;51.478;5.702;2023-02-28T02:44:29;-0.60;99.90
43151;DHT22;28755;51.478;5.702;2023-02-28T02:47:03;-0.60;99.90
43151;DHT22;28755;51.478;5.702;2023-02-28T02:49:32;-0.50;99.90
43151;DHT22;28755;51.478;5.702;2023-02-28T02:52:08;-0.60;99.90
43151;DHT22;28755;51.478;5.702;2023-02-28T02:54:38;-0.60;99.90
43151;DHT22;28755;51.478;5.702;2023-02-28T02:57:12;-0.60;99.90
43151;DHT22;28755;51.478;5.702;2023-02-28T02:59:40;-0.70;99.90
43151;DHT22;28755;51.478;5.702;2023-02-28T03:02:10;-0.70;99.90
43151;DHT22;28755;51.478;5.702;2023-02-28T03:04:45;-0.70;99.90
43151;DHT22;28755;51.478;5.702;2023-02-28T03:07:11;-0.70;99.90
43151;DHT22;28755;51.478;5.702;2023-02-28T03:09:37;-0.70;99.90
43151;DHT22;28755;51.478;5.702;2023-02-28T03:12:03;-0.70;99.90
43151;DHT22;28755;51.478;5.702;2023-02-28T03:17:31;-0.70;99.90
43151;DHT22;28755;51.478;5.702;2023-02-28T03:23:14;-0.60;99.90
43151;DHT22;28755;51.478;5.702;2023-02-28T03:26:04;-0.50;99.90
43151;DHT22;28755;51.478;5.702;2023-02-28T03:29:02;-0.40;99.90
43151;DHT22;28755;51.478;5.702;2023-02-28T03:31:43;-0.40;99.90
43151;DHT22;28755;51.478;5.702;2023-02-28T03:34:10;-0.30;99.90
43151;DHT22;28755;51.478;5.702;2023-02-28T03:36:40;-0.20;99.90
43151;DHT22;28755;51.478;5.702;2023-02-28T03:39:18;-0.20;99.90
43151;DHT22;28755;51.478;5.702;2023-02-28T03:41:59;-0.10;99.90
43151;DHT22;28755;51.478;5.702;2023-02-28T03:44:35;0.00;99.90
43151;DHT22;28755;51.478;5.702;2023-02-28T03:47:16;0.00;99.90
43151;DHT22;28755;51.478;5.702;2023-02-28T03:50:20;0.00;99.90
43151;DHT22;28755;51.478;5.702;2023-02-28T03:53:21;0.00;99.90
43151;DHT22;28755;51.478;5.702;2023-02-28T03:55:54;0.10;99.90
43151;DHT22;28755;51.478;5.702;2023-02-28T03:58:27;0.20;99.90
43151;DHT22;28755;51.478;5.702;2023-02-28T04:01:09;0.30;99.90
43151;DHT22;28755;51.478;5.702;2023-02-28T04:03:37;0.40;99.90
43151;DHT22;28755;51.478;5.702;2023-02-28T04:06:05;0.30;99.90
43151;DHT22;28755;51.478;5.702;2023-02-28T04:08:32;0.40;99.90
43151;DHT22;28755;51.478;5.702;2023-02-28T04:13:38;0.40;99.90
43151;DHT22;28755;51.478;5.702;2023-02-28T04:16:07;0.50;99.90
43151;DHT22;28755;51.478;5.702;2023-02-28T04:18:41;0.60;99.90
43151;DHT22;28755;51.478;5.702;2023-02-28T04:21:08;0.60;99.90
43151;DHT22;28755;51.478;5.702;2023-02-28T04:23:34;0.70;99.90
43151;DHT22;28755;51.478;5.702;2023-02-28T04:25:59;0.80;99.90
43151;DHT22;28755;51.478;5.702;2023-02-28T04:28:25;0.80;99.90
43151;DHT22;28755;51.478;5.702;2023-02-28T04:31:02;0.80;99.90
43151;DHT22;28755;51.478;5.702;2023-02-28T04:33:29;0.90;99.90
43151;DHT22;28755;51.478;5.702;2023-02-28T04:36:03;0.90;99.90
43151;DHT22;28755;51.478;5.702;2023-02-28T04:38:37;0.90;99.90
43151;DHT22;28755;51.478;5.702;2023-02-28T04:41:03;0.90;99.90
43151;DHT22;28755;51.478;5.702;2023-02-28T04:43:29;0.90;99.90
43151;DHT22;28755;51.478;5.702;2023-02-28T04:45:56;0.90;99.90
43151;DHT22;28755;51.478;5.702;2023-02-28T04:48:27;0.80;99.90
43151;DHT22;28755;51.478;5.702;2023-02-28T04:50:53;0.80;99.90
43151;DHT22;28755;51.478;5.702;2023-02-28T04:53:19;0.90;99.90
43151;DHT22;28755;51.478;5.702;2023-02-28T04:55:45;0.80;99.90
43151;DHT22;28755;51.478;5.702;2023-02-28T04:58:12;0.80;99.90
43151;DHT22;28755;51.478;5.702;2023-02-28T05:00:37;0.90;99.90
43151;DHT22;28755;51.478;5.702;2023-02-28T05:03:03;0.90;99.90
43151;DHT22;28755;51.478;5.702;2023-02-28T05:05:29;0.90;99.90
43151;DHT22;28755;51.478;5.702;2023-02-28T05:07:54;0.80;99.90
43151;DHT22;28755;51.478;5.702;2023-02-28T05:10:21;0.80;99.90
43151;DHT22;28755;51.478;5.702;2023-02-28T05:12:47;0.80;99.90
43151;DHT22;28755;51.478;5.702;2023-02-28T05:15:15;0.80;99.90
43151;DHT22;28755;51.478;5.702;2023-02-28T05:17:41;0.70;99.90
43151;DHT22;28755;51.478;5.702;2023-02-28T05:20:08;0.70;99.90
43151;DHT22;28755;51.478;5.702;2023-02-28T05:22:37;0.80;99.90
43151;DHT22;28755;51.478;5.702;2023-02-28T05:25:04;0.80;99.90
43151;DHT22;28755;51.478;5.702;2023-02-28T05:27:30;0.80;99.90
43151;DHT22;28755;51.478;5.702;2023-02-28T05:29:56;0.80;99.90
43151;DHT22;28755;51.478;5.702;2023-02-28T05:32:22;0.80;99.90
43151;DHT22;28755;51.478;5.702;2023-02-28T05:34:48;0.80;99.90
43151;DHT22;28755;51.478;5.702;2023-02-28T05:37:14;0.90;99.90
43151;DHT22;28755;51.478;5.702;2023-02-28T05:39:41;0.90;99.90
43151;DHT22;28755;51.478;5.702;2023-02-28T05:42:06;0.90;99.90
43151;DHT22;28755;51.478;5.702;2023-02-28T05:44:32;0.80;99.90
43151;DHT22;28755;51.478;5.702;2023-02-28T05:46:58;0.80;99.90
43151;DHT22;28755;51.478;5.702;2023-02-28T05:49:23;0.80;99.90
43151;DHT22;28755;51.478;5.702;2023-02-28T05:51:49;0.70;99.90
43151;DHT22;28755;51.478;5.702;2023-02-28T05:54:15;0.60;99.90
43151;DHT22;28755;51.478;5.702;2023-02-28T05:56:40;0.60;99.90
43151;DHT22;28755;51.478;5.702;2023-02-28T06:02:49;0.50;99.90
43151;DHT22;28755;51.478;5.702;2023-02-28T06:05:17;0.60;99.90
43151;DHT22;28755;51.478;5.702;2023-02-28T06:07:43;0.60;99.90
43151;DHT22;28755;51.478;5.702;2023-02-28T06:10:12;0.60;99.90
43151;DHT22;28755;51.478;5.702;2023-02-28T06:12:38;0.50;99.90
43151;DHT22;28755;51.478;5.702;2023-02-28T06:15:04;0.50;99.90
43151;DHT22;28755;51.478;5.702;2023-02-28T06:17:30;0.50;99.90
43151;DHT22;28755;51.478;5.702;2023-02-28T06:19:55;0.50;99.90
43151;DHT22;28755;51.478;5.702;2023-02-28T06:22:21;0.40;99.90
43151;DHT22;28755;51.478;5.702;2023-02-28T06:24:46;0.30;99.90
43151;DHT22;28755;51.478;5.702;2023-02-28T06:27:12;0.30;99.90
43151;DHT22;28755;51.478;5.702;2023-02-28T06:29:37;0.30;99.90
43151;DHT22;28755;51.478;5.702;2023-02-28T06:32:05;0.30;99.90
43151;DHT22;28755;51.478;5.702;2023-02-28T06:34:31;0.20;99.90
43151;DHT22;28755;51.478;5.702;2023-02-28T06:36:59;0.10;99.90
43151;DHT22;28755;51.478;5.702;2023-02-28T06:39:28;0.10;99.90
43151;DHT22;28755;51.478;5.702;2023-02-28T06:41:53;0.20;99.90
43151;DHT22;28755;51.478;5.702;2023-02-28T06:44:19;0.20;99.90
43151;DHT22;28755;51.478;5.702;2023-02-28T06:46:45;0.20;99.90
43151;DHT22;28755;51.478;5.702;2023-02-28T06:49:11;0.30;99.90
43151;DHT22;28755;51.478;5.702;2023-02-28T06:51:41;0.40;99.90
43151;DHT22;28755;51.478;5.702;2023-02-28T06:54:07;0.40;99.90
43151;DHT22;28755;51.478;5.702;2023-02-28T06:56:36;0.40;99.90
43151;DHT22;28755;51.478;5.702;2023-02-28T06:59:02;0.50;99.90
43151;DHT22;28755;51.478;5.702;2023-02-28T07:01:27;0.60;99.90
43151;DHT22;28755;51.478;5.702;2023-02-28T07:03:53;1.10;99.90
43151;DHT22;28755;51.478;5.702;2023-02-28T07:06:23;1.80;99.90
43151;DHT22;28755;51.478;5.702;2023-02-28T07:08:50;2.70;99.90
43151;DHT22;28755;51.478;5.702;2023-02-28T07:11:16;3.80;99.90
43151;DHT22;28755;51.478;5.702;2023-02-28T07:13:41;4.90;99.90
43151;DHT22;28755;51.478;5.702;2023-02-28T07:16:09;5.90;99.90
43151;DHT22;28755;51.478;5.702;2023-02-28T07:18:36;6.60;99.90
43151;DHT22;28755;51.478;5.702;2023-02-28T07:21:07;7.20;99.90
43151;DHT22;28755;51.478;5.702;2023-02-28T07:23:33;7.60;99.90
43151;DHT22;28755;51.478;5.702;2023-02-28T07:25:59;7.90;99.90
43151;DHT22;28755;51.478;5.702;2023-02-28T07:28:25;8.20;99.90
43151;DHT22;28755;51.478;5.702;2023-02-28T07:30:50;8.20;99.90
43151;DHT22;28755;51.478;5.702;2023-02-28T07:33:16;8.20;99.90
43151;DHT22;28755;51.478;5.702;2023-02-28T07:35:42;8.30;99.90
43151;DHT22;28755;51.478;5.702;2023-02-28T07:38:07;7.80;99.90
43151;DHT22;28755;51.478;5.702;2023-02-28T07:40:34;7.20;99.90
43151;DHT22;28755;51.478;5.702;2023-02-28T07:43:00;6.20;99.90
43151;DHT22;28755;51.478;5.702;2023-02-28T07:45:27;5.80;99.90
43151;DHT22;28755;51.478;5.702;2023-02-28T07:47:54;6.00;99.90
43151;DHT22;28755;51.478;5.702;2023-02-28T07:50:20;6.10;99.90
43151;DHT22;28755;51.478;5.702;2023-02-28T07:52:45;5.80;99.90
43151;DHT22;28755;51.478;5.702;2023-02-28T07:55:11;5.20;99.90
43151;DHT22;28755;51.478;5.702;2023-02-28T07:57:37;5.00;99.90
43151;DHT22;28755;51.478;5.702;2023-02-28T08:00:07;5.30;99.90
43151;DHT22;28755;51.478;5.702;2023-02-28T08:02:35;6.20;99.90
43151;DHT22;28755;51.478;5.702;2023-02-28T08:05:01;6.80;99.90
43151;DHT22;28755;51.478;5.702;2023-02-28T08:07:27;7.40;99.90
43151;DHT22;28755;51.478;5.702;2023-02-28T08:09:52;7.20;99.90
43151;DHT22;28755;51.478;5.702;2023-02-28T08:12:18;7.20;99.90
43151;DHT22;28755;51.478;5.702;2023-02-28T08:14:44;6.70;99.90
43151;DHT22;28755;51.478;5.702;2023-02-28T08:17:10;5.80;99.90
43151;DHT22;28755;51.478;5.702;2023-02-28T08:19:35;5.60;99.90
43151;DHT22;28755;51.478;5.702;2023-02-28T08:22:01;6.00;99.90
43151;DHT22;28755;51.478;5.702;2023-02-28T08:24:27;6.50;99.90
43151;DHT22;28755;51.478;5.702;2023-02-28T08:26:52;7.50;99.90
43151;DHT22;28755;51.478;5.702;2023-02-28T08:29:18;8.70;99.90
43151;DHT22;28755;51.478;5.702;2023-02-28T08:31:43;9.40;99.90
43151;DHT22;28755;51.478;5.702;2023-02-28T08:34:12;9.30;99.90
43151;DHT22;28755;51.478;5.702;2023-02-28T08:36:38;9.10;99.90
43151;DHT22;28755;51.478;5.702;2023-02-28T08:39:04;9.00;99.90
43151;DHT22;28755;51.478;5.702;2023-02-28T08:41:30;8.70;99.90
43151;DHT22;28755;51.478;5.702;2023-02-28T08:43:56;9.00;99.90
43151;DHT22;28755;51.478;5.702;2023-02-28T08:46:23;9.80;99.90
43151;DHT22;28755;51.478;5.702;2023-02-28T08:48:52;9.50;99.90
43151;DHT22;28755;51.478;5.702;2023-02-28T08:51:19;9.40;99.90
43151;DHT22;28755;51.478;5.702;2023-02-28T08:53:54;9.70;99.90
43151;DHT22;28755;51.478;5.702;2023-02-28T08:56:20;9.50;99.90
43151;DHT22;28755;51.478;5.702;2023-02-28T08:58:48;10.00;99.90
43151;DHT22;28755;51.478;5.702;2023-02-28T09:01:19;11.10;99.20
43151;DHT22;28755;51.478;5.702;2023-02-28T09:03:47;12.20;98.10
43151;DHT22;28755;51.478;5.702;2023-02-28T09:06:13;12.80;96.70
43151;DHT22;28755;51.478;5.702;2023-02-28T09:08:39;13.30;95.20
43151;DHT22;28755;51.478;5.702;2023-02-28T09:11:05;12.50;95.30
43151;DHT22;28755;51.478;5.702;2023-02-28T09:13:31;12.40;95.00
43151;DHT22;28755;51.478;5.702;2023-02-28T09:15:58;12.70;93.30
43151;DHT22;28755;51.478;5.702;2023-02-28T09:18:24;12.80;93.10
43151;DHT22;28755;51.478;5.702;2023-02-28T09:20:50;13.60;91.90
43151;DHT22;28755;51.478;5.702;2023-02-28T09:23:16;13.60;91.60
43151;DHT22;28755;51.478;5.702;2023-02-28T09:25:50;13.90;90.60
43151;DHT22;28755;51.478;5.702;2023-02-28T09:28:16;13.90;90.10
43151;DHT22;28755;51.478;5.702;2023-02-28T09:30:46;14.00;88.50
43151;DHT22;28755;51.478;5.702;2023-02-28T09:33:12;15.10;87.10
43151;DHT22;28755;51.478;5.702;2023-02-28T09:35:38;15.70;83.80
43151;DHT22;28755;51.478;5.702;2023-02-28T09:38:05;16.20;82.50
43151;DHT22;28755;51.478;5.702;2023-02-28T09:40:36;16.70;81.70
43151;DHT22;28755;51.478;5.702;2023-02-28T09:43:02;17.50;80.00
43151;DHT22;28755;51.478;5.702;2023-02-28T09:45:41;17.50;77.00
43151;DHT22;28755;51.478;5.702;2023-02-28T09:48:15;17.40;77.20
43151;DHT22;28755;51.478;5.702;2023-02-28T09:50:53;17.10;74.90
43151;DHT22;28755;51.478;5.702;2023-02-28T09:53:22;16.60;75.00
43151;DHT22;28755;51.478;5.702;2023-02-28T09:55:57;16.50;75.50
43151;DHT22;28755;51.478;5.702;2023-02-28T09:58:32;17.50;73.60
43151;DHT22;28755;51.478;5.702;2023-02-28T10:01:18;17.10;73.10
43151;DHT22;28755;51.478;5.702;2023-02-28T10:06:33;16.40;71.40
43151;DHT22;28755;51.478;5.702;2023-02-28T10:09:10;15.70;71.90
43151;DHT22;28755;51.478;5.702;2023-02-28T10:11:39;16.50;72.70
43151;DHT22;28755;51.478;5.702;2023-02-28T10:14:11;17.90;72.30
43151;DHT22;28755;51.478;5.702;2023-02-28T10:20:12;18.50;69.30
43151;DHT22;28755;51.478;5.702;2023-02-28T10:22:22;19.50;69.50
43151;DHT22;28755;51.478;5.702;2023-02-28T10:24:53;18.30;67.80
43151;DHT22;28755;51.478;5.702;2023-02-28T10:27:24;17.30;68.20
43151;DHT22;28755;51.478;5.702;2023-02-28T10:29:55;17.60;68.10
43151;DHT22;28755;51.478;5.702;2023-02-28T10:32:29;17.70;68.10
43151;DHT22;28755;51.478;5.702;2023-02-28T10:34:59;18.30;68.20
43151;DHT22;28755;51.478;5.702;2023-02-28T10:37:27;18.70;67.00
43151;DHT22;28755;51.478;5.702;2023-02-28T10:39:52;17.40;67.00
43151;DHT22;28755;51.478;5.702;2023-02-28T10:47:48;18.00;67.10
43151;DHT22;28755;51.478;5.702;2023-02-28T11:03:48;19.30;65.30
43151;DHT22;28755;51.478;5.702;2023-02-28T11:06:24;19.80;64.80
43151;DHT22;28755;51.478;5.702;2023-02-28T11:09:03;19.70;64.60
43151;DHT22;28755;51.478;5.702;2023-02-28T11:11:31;20.60;64.10
43151;DHT22;28755;51.478;5.702;2023-02-28T11:14:19;20.50;63.40
43151;DHT22;28755;51.478;5.702;2023-02-28T11:16:46;19.60;64.00
43151;DHT22;28755;51.478;5.702;2023-02-28T11:19:34;18.80;63.40
43151;DHT22;28755;51.478;5.702;2023-02-28T11:22:03;17.70;64.50
43151;DHT22;28755;51.478;5.702;2023-02-28T11:24:41;18.70;64.40
43151;DHT22;28755;51.478;5.702;2023-02-28T11:29:58;19.20;64.00
43151;DHT22;28755;51.478;5.702;2023-02-28T11:32:28;19.20;63.70
43151;DHT22;28755;51.478;5.702;2023-02-28T11:35:03;19.50;64.40
43151;DHT22;28755;51.478;5.702;2023-02-28T11:37:29;19.60;63.90
43151;DHT22;28755;51.478;5.702;2023-02-28T11:39:55;20.00;63.70
43151;DHT22;28755;51.478;5.702;2023-02-28T11:45:36;18.90;62.60
43151;DHT22;28755;51.478;5.702;2023-02-28T11:48:14;17.90;63.00
43151;DHT22;28755;51.478;5.702;2023-02-28T11:53:42;18.00;64.70
43151;DHT22;28755;51.478;5.702;2023-02-28T11:56:39;18.40;63.80
43151;DHT22;28755;51.478;5.702;2023-02-28T11:59:19;18.90;63.30
43151;DHT22;28755;51.478;5.702;2023-02-28T12:02:29;18.80;63.60
43151;DHT22;28755;51.478;5.702;2023-02-28T12:07:53;19.90;63.10
43151;DHT22;28755;51.478;5.702;2023-02-28T12:10:28;20.10;62.50
43151;DHT22;28755;51.478;5.702;2023-02-28T12:18:40;20.00;62.50
43151;DHT22;28755;51.478;5.702;2023-02-28T12:26:41;20.40;62.80
43151;DHT22;28755;51.478;5.702;2023-02-28T12:29:27;21.30;62.50
43151;DHT22;28755;51.478;5.702;2023-02-28T12:32:16;21.40;61.80
43151;DHT22;28755;51.478;5.702;2023-02-28T12:34:48;21.10;61.90
43151;DHT22;28755;51.478;5.702;2023-02-28T12:37:19;20.80;61.40
43151;DHT22;28755;51.478;5.702;2023-02-28T12:39:51;20.80;61.80
43151;DHT22;28755;51.478;5.702;2023-02-28T12:42:28;21.20;61.60
43151;DHT22;28755;51.478;5.702;2023-02-28T12:45:23;20.60;62.10
43151;DHT22;28755;51.478;5.702;2023-02-28T12:48:00;21.00;62.10
43151;DHT22;28755;51.478;5.702;2023-02-28T12:50:26;20.20;61.00
43151;DHT22;28755;51.478;5.702;2023-02-28T12:58:20;19.00;62.60
43151;DHT22;28755;51.478;5.702;2023-02-28T13:03:44;18.60;62.00
43151;DHT22;28755;51.478;5.702;2023-02-28T13:09:12;19.10;61.90
43151;DHT22;28755;51.478;5.702;2023-02-28T13:17:00;19.50;61.20
43151;DHT22;28755;51.478;5.702;2023-02-28T13:19:32;19.50;61.80
43151;DHT22;28755;51.478;5.702;2023-02-28T13:21:59;19.60;61.40
43151;DHT22;28755;51.478;5.702;2023-02-28T13:24:43;19.40;61.60
43151;DHT22;28755;51.478;5.702;2023-02-28T13:29:37;17.60;61.40
43151;DHT22;28755;51.478;5.702;2023-02-28T13:34:33;17.10;63.70
43151;DHT22;28755;51.478;5.702;2023-02-28T13:39:59;15.30;64.10
43151;DHT22;28755;51.478;5.702;2023-02-28T13:47:44;16.70;64.40
43151;DHT22;28755;51.478;5.702;2023-02-28T13:55:52;16.50;64.60
43151;DHT22;28755;51.478;5.702;2023-02-28T13:58:41;16.80;64.70
43151;DHT22;28755;51.478;5.702;2023-02-28T14:04:10;17.00;64.70
43151;DHT22;28755;51.478;5.702;2023-02-28T14:06:38;15.90;64.90
43151;DHT22;28755;51.478;5.702;2023-02-28T14:11:39;13.90;66.90
43151;DHT22;28755;51.478;5.702;2023-02-28T14:14:08;13.90;66.70
43151;DHT22;28755;51.478;5.702;2023-02-28T14:16:47;14.00;66.90
43151;DHT22;28755;51.478;5.702;2023-02-28T14:19:24;14.30;66.40
43151;DHT22;28755;51.478;5.702;2023-02-28T14:24:59;13.90;66.70
43151;DHT22;28755;51.478;5.702;2023-02-28T14:28:10;13.40;66.70
43151;DHT22;28755;51.478;5.702;2023-02-28T14:36:33;12.60;68.60
43151;DHT22;28755;51.478;5.702;2023-02-28T14:39:12;12.40;68.20
43151;DHT22;28755;51.478;5.702;2023-02-28T14:41:40;11.90;69.30
43151;DHT22;28755;51.478;5.702;2023-02-28T14:46:44;11.20;71.50
43151;DHT22;28755;51.478;5.702;2023-02-28T14:49:29;11.00;71.00
43151;DHT22;28755;51.478;5.702;2023-02-28T14:52:21;11.10;71.20
43151;DHT22;28755;51.478;5.702;2023-02-28T14:55:03;10.90;71.40
43151;DHT22;28755;51.478;5.702;2023-02-28T14:57:40;10.50;71.10
43151;DHT22;28755;51.478;5.702;2023-02-28T15:00:16;10.50;71.60
43151;DHT22;28755;51.478;5.702;2023-02-28T15:02:42;10.70;72.10
43151;DHT22;28755;51.478;5.702;2023-02-28T15:07:45;12.30;70.90
43151;DHT22;28755;51.478;5.702;2023-02-28T15:12:55;13.90;68.60
43151;DHT22;28755;51.478;5.702;2023-02-28T15:18:10;14.30;67.10
43151;DHT22;28755;51.478;5.702;2023-02-28T15:20:39;14.20;67.60
43151;DHT22;28755;51.478;5.702;2023-02-28T15:23:17;14.30;67.70
43151;DHT22;28755;51.478;5.702;2023-02-28T15:25:44;14.80;67.60
43151;DHT22;28755;51.478;5.702;2023-02-28T15:28:15;15.50;67.20
43151;DHT22;28755;51.478;5.702;2023-02-28T15:30:54;16.00;66.40
43151;DHT22;28755;51.478;5.702;2023-02-28T15:33:25;16.60;66.70
43151;DHT22;28755;51.478;5.702;2023-02-28T15:35:51;16.80;66.30
43151;DHT22;28755;51.478;5.702;2023-02-28T15:38:28;17.20;65.90
43151;DHT22;28755;51.478;5.702;2023-02-28T15:40:56;17.30;65.70
43151;DHT22;28755;51.478;5.702;2023-02-28T15:46:03;16.20;66.20
43151;DHT22;28755;51.478;5.702;2023-02-28T15:48:31;15.50;67.40
43151;DHT22;28755;51.478;5.702;2023-02-28T15:51:07;16.00;67.30
43151;DHT22;28755;51.478;5.702;2023-02-28T15:58:50;15.50;66.30
43151;DHT22;28755;51.478;5.702;2023-02-28T16:03:54;14.80;67.50
43151;DHT22;28755;51.478;5.702;2023-02-28T16:08:50;15.10;67.60
43151;DHT22;28755;51.478;5.702;2023-02-28T16:11:16;14.40;68.20
43151;DHT22;28755;51.478;5.702;2023-02-28T16:13:42;14.30;68.20
43151;DHT22;28755;51.478;5.702;2023-02-28T16:16:08;14.10;68.20
43151;DHT22;28755;51.478;5.702;2023-02-28T16:18:33;14.00;68.70
43151;DHT22;28755;51.478;5.702;2023-02-28T16:20:59;13.80;69.20
43151;DHT22;28755;51.478;5.702;2023-02-28T16:23:24;12.80;69.50
43151;DHT22;28755;51.478;5.702;2023-02-28T16:25:50;12.20;70.70
43151;DHT22;28755;51.478;5.702;2023-02-28T16:28:27;11.60;71.60
43151;DHT22;28755;51.478;5.702;2023-02-28T16:30:56;10.80;72.80
43151;DHT22;28755;51.478;5.702;2023-02-28T16:33:22;10.10;73.60
43151;DHT22;28755;51.478;5.702;2023-02-28T16:35:48;9.50;74.80
43151;DHT22;28755;51.478;5.702;2023-02-28T16:38:13;9.20;75.20
43151;DHT22;28755;51.478;5.702;2023-02-28T16:40:39;8.80;76.00
43151;DHT22;28755;51.478;5.702;2023-02-28T16:43:07;8.30;77.10
43151;DHT22;28755;51.478;5.702;2023-02-28T16:45:34;8.20;78.10
43151;DHT22;28755;51.478;5.702;2023-02-28T16:47:59;8.00;78.10
43151;DHT22;28755;51.478;5.702;2023-02-28T16:50:27;7.90;78.50
43151;DHT22;28755;51.478;5.702;2023-02-28T16:52:53;7.90;79.30
43151;DHT22;28755;51.478;5.702;2023-02-28T16:55:20;7.80;79.20
43151;DHT22;28755;51.478;5.702;2023-02-28T16:57:55;7.80;79.40
43151;DHT22;28755;51.478;5.702;2023-02-28T17:00:21;7.80;80.20
43151;DHT22;28755;51.478;5.702;2023-02-28T17:02:47;7.70;80.40
43151;DHT22;28755;51.478;5.702;2023-02-28T17:05:13;7.60;80.60
43151;DHT22;28755;51.478;5.702;2023-02-28T17:07:40;7.40;81.40
43151;DHT22;28755;51.478;5.702;2023-02-28T17:12:42;7.30;82.10
43151;DHT22;28755;51.478;5.702;2023-02-28T17:15:10;7.20;82.40
43151;DHT22;28755;51.478;5.702;2023-02-28T17:17:36;7.10;87.60
43151;DHT22;28755;51.478;5.702;2023-02-28T17:20:02;7.10;83.50
43151;DHT22;28755;51.478;5.702;2023-02-28T17:22:28;7.00;83.40
43151;DHT22;28755;51.478;5.702;2023-02-28T17:24:53;6.80;83.70
43151;DHT22;28755;51.478;5.702;2023-02-28T17:27:23;6.70;84.60
43151;DHT22;28755;51.478;5.702;2023-02-28T17:29:48;6.80;85.00
43151;DHT22;28755;51.478;5.702;2023-02-28T17:32:14;6.70;85.40
43151;DHT22;28755;51.478;5.702;2023-02-28T17:34:39;6.60;85.50
43151;DHT22;28755;51.478;5.702;2023-02-28T17:37:05;6.70;86.00
43151;DHT22;28755;51.478;5.702;2023-02-28T17:39:31;6.60;86.10
43151;DHT22;28755;51.478;5.702;2023-02-28T17:41:56;6.50;86.10
43151;DHT22;28755;51.478;5.702;2023-02-28T17:44:23;6.40;86.80
43151;DHT22;28755;51.478;5.702;2023-02-28T17:46:49;6.40;87.60
43151;DHT22;28755;51.478;5.702;2023-02-28T17:49:16;6.30;89.10
43151;DHT22;28755;51.478;5.702;2023-02-28T17:51:42;6.20;87.90
43151;DHT22;28755;51.478;5.702;2023-02-28T17:54:08;6.10;88.20
43151;DHT22;28755;51.478;5.702;2023-02-28T17:56:33;6.10;89.00
43151;DHT22;28755;51.478;5.702;2023-02-28T17:58:59;6.10;89.20
43151;DHT22;28755;51.478;5.702;2023-02-28T18:01:25;6.00;89.40
43151;DHT22;28755;51.478;5.702;2023-02-28T18:03:52;6.00;90.10
43151;DHT22;28755;51.478;5.702;2023-02-28T18:06:24;6.00;90.20
43151;DHT22;28755;51.478;5.702;2023-02-28T18:08:51;5.90;90.50
43151;DHT22;28755;51.478;5.702;2023-02-28T18:11:18;5.90;90.40
43151;DHT22;28755;51.478;5.702;2023-02-28T18:13:48;5.80;90.90
43151;DHT22;28755;51.478;5.702;2023-02-28T18:16:15;5.80;91.50
43151;DHT22;28755;51.478;5.702;2023-02-28T18:18:41;5.70;91.50
43151;DHT22;28755;51.478;5.702;2023-02-28T18:21:08;5.70;91.60
43151;DHT22;28755;51.478;5.702;2023-02-28T18:23:34;5.60;91.90
43151;DHT22;28755;51.478;5.702;2023-02-28T18:26:00;5.40;92.10